createdAt,value
2022-08-05T00:05:05.793Z,3.18
2022-08-05T00:16:08.492Z,3.17
2022-08-05T00:27:10.569Z,3.17
2022-08-05T00:38:03.847Z,3.16
2022-08-05T00:49:10.416Z,3.15
2022-08-05T01:00:13.866Z,3.15
2022-08-05T01:11:22.370Z,3.15
2022-08-05T01:22:24.401Z,3.15
2022-08-05T01:33:25.211Z,3.14
2022-08-05T01:44:15.439Z,3.13
2022-08-05T01:55:14.937Z,3.13
2022-08-05T02:06:33.512Z,3.13
2022-08-05T02:18:15.187Z,3.13
2022-08-05T02:28:28.316Z,3.13
2022-08-05T02:39:28.187Z,3.12
2022-08-05T02:50:37.496Z,3.09
2022-08-05T03:01:34.592Z,3.11
2022-08-05T03:12:33.378Z,3.11
2022-08-05T03:23:35.123Z,3.11
2022-08-05T03:34:39.093Z,3.11
2022-08-05T03:45:57.347Z,3.10
2022-08-05T03:56:46.598Z,3.10
2022-08-05T04:07:58.296Z,3.10
2022-08-05T04:18:53.920Z,3.10
2022-08-05T04:29:49.432Z,3.10
2022-08-05T04:40:51.664Z,3.10
2022-08-05T04:51:49.081Z,3.11
2022-08-05T05:02:58.212Z,3.11
2022-08-05T05:13:59.335Z,3.11
2022-08-05T05:25:01.212Z,3.12
2022-08-05T05:36:02.622Z,3.13
2022-08-05T05:47:21.350Z,3.14
2022-08-05T05:58:10.990Z,3.14
2022-08-05T06:09:17.063Z,3.15
2022-08-05T06:20:21.271Z,3.16
2022-08-05T06:31:30.502Z,3.17
2022-08-05T06:42:26.550Z,3.18
2022-08-05T06:53:29.232Z,3.20
2022-08-05T07:04:30.995Z,3.21
2022-08-05T07:15:34.372Z,3.23
2022-08-05T07:26:37.916Z,3.24
2022-08-05T07:37:39.478Z,3.25
2022-08-05T07:49:02.475Z,3.26
2022-08-05T07:59:42.642Z,3.28
2022-08-05T08:10:49.026Z,3.29
2022-08-05T08:21:49.924Z,3.30
2022-08-05T08:32:47.577Z,3.32
2022-08-05T08:45:19.418Z,3.33
2022-08-05T08:54:51.109Z,3.34
2022-08-05T09:06:09.132Z,3.35
2022-08-05T09:16:56.791Z,3.37
2022-08-05T09:28:05.253Z,3.38
2022-08-05T09:39:02.871Z,3.34
2022-08-05T09:50:05.135Z,3.34
2022-08-05T10:01:14.761Z,3.34
2022-08-05T10:11:56.194Z,3.34
2022-08-05T10:22:52.865Z,3.34
2022-08-05T10:33:56.202Z,3.34
2022-08-05T10:44:58.613Z,3.34
2022-08-05T10:56:04.589Z,3.34
2022-08-05T11:06:58.232Z,3.34
2022-08-05T11:18:03.757Z,3.34
2022-08-05T11:28:51.639Z,3.34
2022-08-05T11:39:55.205Z,3.34
2022-08-05T11:50:56.813Z,3.34
2022-08-05T12:01:57.899Z,3.34
2022-08-05T12:12:59.210Z,3.34
2022-08-05T12:24:04.422Z,3.34
2022-08-05T12:35:03.962Z,3.34
2022-08-05T12:45:53.415Z,3.34
2022-08-05T12:56:47.686Z,3.34
2022-08-05T13:18:37.485Z,3.34
2022-08-05T13:29:37.795Z,3.34
2022-08-05T13:40:50.002Z,3.33
2022-08-05T13:51:40.298Z,3.35
2022-08-05T14:02:36.834Z,3.34
2022-08-05T14:13:34.575Z,3.33
2022-08-05T14:24:28.762Z,3.38
2022-08-05T14:35:37.237Z,3.38
2022-08-05T14:46:23.006Z,3.38
2022-08-05T14:57:34.062Z,3.39
2022-08-05T15:08:58.090Z,3.39
2022-08-05T15:19:34.306Z,3.38
2022-08-05T15:30:31.521Z,3.35
2022-08-05T15:41:24.540Z,3.37
2022-08-05T15:52:29.439Z,3.37
2022-08-05T16:03:30.528Z,3.37
2022-08-05T16:14:32.657Z,3.37
2022-08-05T16:25:34.070Z,3.38
2022-08-05T16:36:33.957Z,3.38
2022-08-05T16:47:40.784Z,3.38
2022-08-05T16:58:34.938Z,3.38
2022-08-05T17:09:57.688Z,3.37
2022-08-05T17:20:40.262Z,3.36
2022-08-05T17:31:56.645Z,3.35
2022-08-05T17:42:41.639Z,3.34
2022-08-05T17:53:44.526Z,3.33
2022-08-05T18:04:51.252Z,3.33
2022-08-05T18:15:34.213Z,3.31
2022-08-05T18:26:28.973Z,3.30
2022-08-05T18:37:34.335Z,3.30
2022-08-05T18:48:31.447Z,3.30
2022-08-05T18:59:43.212Z,3.29
2022-08-05T19:10:31.002Z,3.29
2022-08-05T19:21:34.699Z,3.28
2022-08-05T19:32:36.779Z,3.28
2022-08-05T19:44:04.533Z,3.28
2022-08-05T19:54:35.108Z,3.27
2022-08-05T20:05:43.008Z,3.27
2022-08-05T20:16:33.202Z,3.26
2022-08-05T20:27:41.627Z,3.26
2022-08-05T20:38:35.688Z,3.25
2022-08-05T20:49:39.642Z,3.25
2022-08-05T21:00:44.355Z,3.25
2022-08-05T21:12:09.396Z,3.25
2022-08-05T21:22:45.494Z,3.24
2022-08-05T21:33:40.036Z,3.23
2022-08-05T21:44:38.374Z,3.23
2022-08-05T21:56:01.198Z,3.23
2022-08-05T22:06:42.787Z,3.23
2022-08-05T22:17:56.350Z,3.22
2022-08-05T22:28:52.802Z,3.22
2022-08-05T22:39:50.320Z,3.21
2022-08-05T22:50:46.810Z,3.21
2022-08-05T23:02:04.802Z,3.21
2022-08-05T23:12:54.779Z,3.20
2022-08-05T23:23:56.551Z,3.20
2022-08-05T23:34:56.608Z,3.19
2022-08-05T23:45:57.664Z,3.19
2022-08-05T23:57:03.388Z,3.19
